KNMI Weerbulletins

Hier vind u de KMNI verwachtingen en de waarnemingen

Bron: KNMI website
Laatste update op 22-01-2020 om 05:44
ZCZC
FBNL50 EHDB 211941
WEERBULLETIN VOOR DE LUCHTVAART
.
GELDIG VOOR: DE DAGLICHTPERIODE VAN WOENSDAG 22 JANUARI 2020.
.
SITUATIE: EEN GORDEL VAN HOGEDRUK STREKT ZICH UIT VAN IERLAND NAAR
ITALIE. EEN W-O GEORIENTEERDE OCCLUSIE LIGT BOVEN HET WADDENGEBIED,
TREKT ZUIDWAARTS EN LIGT AAN HET EINDE VAN DE PERIODE BOVEN HET
UITERSTE ZUIDEN. TEN ZUIDEN VAN DE OCCLUSIE IS DE AANGEVOERD LUCHT
STABIEL VAN OPBOUW EN TOT 8000 VT ZEER VOCHTIG. TEN NOORDEN VAN DE
OCCLUSIE VOERT EEN NOORDELIJKE STROMING MARITIEM POLAIRE LUCHT AAN
WAARVAN DE OPBOUW ONSTABIEL IS TOT 3000 VT.
.
SIGNIFICANT WEER: TEN ZUIDEN VAN DE OCCLUSIE OP VEEL PLAATSEN NEVEL
EN MIST. BIJ DE OCCLUSIE LOKAAL LICHTE MOTREGEN. AAN HET EINDE VAN DE
PERIODE ONTSTAAT ACHTER DE OCCLUSIE MOGELIJK OPNIEUW NEVEL EN MIST.
.
WIND: BIJ EN ZUID VAN DE OCCLUSIE ZUIDZUIDWEST 1-5 KN, ACHTER DE
OCCLUSIE NOORDWEST 5-8 KN, LANGS DE KUST EN BOVEN HET IJSSELMEER 8-12
KN.
.
BEWOLKING: ZUID VAN DE OCCLUSIE OP VEEL PLAATSEN BKN ST BENEDEN 500
VT, LOKAAL BKN ST 500-1000 VT, TOPPEN 4000 VT, BIJ DE OCCLUSIE LOKAAL
TOT 8000 VT. ACHTER DE OCCLUSIE LOKAAL BKN SC 1500-2000 VT, TOPPEN
3000 VT.
.
ZICHT: ZUID VAN DE OCCLUSIE OP VEEL PLAATSEN MINDER DAN 1500 M,
LOKAAL 1500-5000 M. NOORD VAN DE OCCLUSIE OP VEEL PLAATSEN MEER DAN
10 KM, AAN HET EINDE VAN DE PERIODE TERUGLOPEND NAAR 1500-5000 M,
LOKAAL MINDER DAN 1500 M.
.
NULGRADEN NIVEAU: ZUID VAN DE OCCLUSIE IN MIST LOKAAL AAN DE GROND EN
TEVENS ROND FL085. NOORD VAN DE OCCLUSIE DALEND NAAR ROND 3500 VT EN
ROND FL085.
.
THERMIEK: -
.
DAGLICHTPERIODE: 07.20 TOT 16.24 UTC.=
NNNN
Bron: KNMI website
Laatste update op 22-01-2020 om 05:44
ZCZC
FC210900 EHWO AAA WOENSDRECHT/WOENSDRECHT   NLD   19 m.
TAF AMD EHWO 211334Z 2114/2122 CNL=
ZCZC
FC211300 EHGR RRA GILZE-RIJEN/GILZE-RIJEN   NLD   14 m.
TAF EHGR 211341Z 2114/2202 24004KT 1500 BR BKN002
    PROB30 TEMPO 2115/2118 6000 NSW FEW005
    BECMG 2118/2121 0800 FG FZFG BKN001=
ZCZC
FT212300 EHBK     MAASTRICHT/MAASTRICHT-AACHEN   NLD   114 m.
TAF EHBK 212315Z 2200/2306 VRB03KT 0200 FZFG VV000
    BECMG 2210/2213 0800 FG SCT001 BKN002
    PROB40 2218/2306 0300 VV000=
ZCZC
FT212300 EHGG     GRONINGEN/EELDE   NLD   5 m.
TAF EHGG 212315Z 2200/2306 23006KT 2000 BR BKN002
    PROB40 2206/2212 0700 -DZ FG BKN001
    BECMG 2211/2214 33007KT 9999 NSW SCT015
    BECMG 2218/2221 VRB03KT 2000 BCFG BR
    PROB40 2220/2306 0300 FG VV000=
ZCZC
FT212300 EHLE     LELYSTAD/LELYSTAD   NLD   -3 m.
TAF EHLE 212312Z 2200/2306 21006KT 2000 BR SCT001 BKN002
    PROB30 2200/2213 0600 FG BKN001
    BECMG 2210/2213 VRB03KT
    PROB40 2213/2217 8000 NSW SCT025
    PROB40 2217/2306 0600 FG BKN001=
ZCZC
FT212300 EHRD     ROTTERDAM/THE HAGUE AIRPORT   NLD   -5 m.
TAF EHRD 212312Z 2200/2306 22005KT 0800 FG BKN001
    PROB30 2200/2213 1500 BR SCT002 BKN004 BKN016
    BECMG 2212/2215 VRB03KT
    PROB30 2213/2218 6000 NSW SCT025
    PROB40 2218/2306 0500 FG=
ZCZC
FT212300 EHEH     EINDHOVEN/EINDHOVEN   NLD   22 m.
TAF EHEH 212342Z 2200/2306 21003KT 0300 FG FZFG BKN000
    PROB30 TEMPO 2200/2206 1000 BR BKN001
    BECMG 2208/2210 1200 BR SCT001 BKN002
    TEMPO 2208/2214 2500 BR -DZ SCT002 BKN005
    PROB40 TEMPO 2214/2218 0800 FG BKN001
    BECMG 2219/2222 VRB01KT 0800 FG BKN001
    TEMPO 2219/2304 0300 FG OVC000
    BECMG 2304/2306 09004KT 1500 BR SCT002=
ZCZC
FT212300 EHAM AAA AMSTERDAM/SCHIPHOL   NLD   -3 m.
TAF AMD EHAM 220022Z 2200/2306 22005KT 2500 BR SCT003 BKN014
    BECMG 2204/2207 SCT003 BKN008
    BECMG 2207/2210 SCT002 BKN003
    PROB40 2209/2306 0600 FG BKN001
    BECMG 2211/2214 VRB03KT
    PROB30 2213/2217 7000 NSW SCT018=
ZCZC
FC220100 EHKD RRA DE KOOY/DE KOOY   NLD   1 m.
TAF EHKD 220101Z 2202/2214 28006KT 9999 SCT008 BKN010
    BECMG 2202/2205 4500 BR -DZ SCT004 BKN007
    TEMPO 2204/2214 1500 DZ BR SCT002 BKN003
    PROB40 TEMPO 2208/2214 9999 NSW FEW008 SCT012
    BECMG 2212/2214 VRB02KT=
ZCZC
FC220100 EHLW RRB LEEUWARDEN/LEEUWARDEN   NLD   1 m.
TAF EHLW 220109Z 2202/2214 24006KT 9999 FEW007 SCT010 BKN016
    BECMG 2202/2205 4500 BR -DZ SCT004 BKN007
    TEMPO 2204/2214 1500 DZ BR SCT002 BKN003
    PROB40 TEMPO 2208/2213 9999 NSW FEW008 SCT012
    BECMG 2212/2214 VRB02KT 9999 NSW FEW008 SCT018=
ZCZC
FC220100 EHVK RRC VOLKEL/VOLKEL   NLD   21 m.
TAF EHVK 220111Z 2202/2214 24003KT 0300 FG FZFG BKN000
    PROB30 TEMPO 2202/2209 1000 BR BKN001 OVC008
    BECMG 2208/2211 1200 BR SCT001 BKN002
    TEMPO 2209/2212 2500 BR -DZ SCT002 BKN005=
Bron: KNMI website
Laatste update op 22-01-2020 om 05:44
ZCZC
SA220355 EHFS     VLISSINGEN AWS   NLD   8 m.
METAR EHFS 220355Z AUTO 18005KT 1100 BR BKN000/// OVC001/// 02/01
Q1037=
ZCZC
SA220425 EHKD     DE KOOY/DE KOOY   NLD   1 m.
METAR EHKD 220425Z AUTO 28007KT 6000 BR FEW005 OVC006 07/06 Q1035 YLO=
ZCZC
SA220425 EHFD     F3-FB-1   NLD   50 m.
METAR EHFD 220425Z AUTO ///11KT 2300 HZ BKN001/// BKN003/// OVC004///
///// Q1034=
ZCZC
SA220425 EHAM     AMSTERDAM/SCHIPHOL   NLD   -3 m.
METAR EHAM 220425Z 19007KT 2600 BR BKN003 BKN009 04/03 Q1036 BECMG
SCT003 BKN008=
ZCZC
SA220425 EHVL     VLIELAND   NLD   10 m.
METAR EHVL 220425Z AUTO 28015KT 3000 BR SCT003 OVC004 07/07 Q1035 YLO=
ZCZC
SA220425 EHJR     K13-A   NLD   37 m.
METAR EHJR 220425Z AUTO 27011KT //// // ///////// 07/06 Q1036 RE//
W08/H8=
ZCZC
SA220425 EHLE     LELYSTAD/LELYSTAD   NLD   -3 m.
METAR EHLE 220425Z AUTO 23005KT 190V250 2400 BR SCT001 BKN002 OVC004
03/03 Q1036=
ZCZC
SA220425 EHLW     LEEUWARDEN/LEEUWARDEN   NLD   1 m.
METAR EHLW 220425Z AUTO 27009KT 2400 BR OVC001 06/06 Q1035 RED=
ZCZC
SA220425 EHDL     ARNHEM/DEELEN   NLD   48 m.
METAR EHDL 220425Z AUTO 21004KT 170V250 0800 FG VV000 01/01 Q1036 AMB=
ZCZC
SA220425 EHGG     GRONINGEN/EELDE   NLD   5 m.
METAR EHGG 220425Z AUTO 24005KT 1700 BR OVC001 05/05 Q1034=
ZCZC
SA220425 EHSC     LICHTEILAND GOEREE   NLD   22 m.
METAR EHSC 220425Z AUTO 32005KT 280V360 9999 ///////// 07/04 Q1036
W08/H4=
ZCZC
SA220425 EHSA     EURO PLATFORM   NLD   19 m.
METAR EHSA 220425Z AUTO 32005KT 280V010 9999 ///////// 07/04 Q1036
W06/H5=
ZCZC
SA220425 EHWO     WOENSDRECHT/WOENSDRECHT   NLD   19 m.
METAR EHWO 220425Z AUTO 21002KT 0350 FG VV000 01/01 Q1037 RED=
ZCZC
SA220425 EHRD     ROTTERDAM/THE HAGUE AIRPORT   NLD   -5 m.
METAR EHRD 220425Z AUTO 17003KT 3900 BR FEW002 OVC014 03/03 Q1036
NOSIG=
ZCZC
SA220425 EHGR     GILZE-RIJEN/GILZE-RIJEN   NLD   14 m.
METAR EHGR 220425Z AUTO 20005KT 160V250 0400 FG VV000 00/00 Q1037 RED=
ZCZC
SA220425 EHEH     EINDHOVEN/EINDHOVEN   NLD   22 m.
METAR EHEH 220425Z AUTO 20004KT 0500 FZFG OVC000 M01/M01 Q1037
RED RMK LVP  DELTA=
ZCZC
SA220425 EHVK     VOLKEL/VOLKEL   NLD   21 m.
METAR EHVK 220425Z AUTO 21007KT 180V240 0400 FZFG OVC000 M01/M01
Q1037 RED=
ZCZC
SA220425 EHBK     MAASTRICHT/MAASTRICHT-AACHEN   NLD   114 m.
METAR EHBK 220425Z AUTO 23003KT 200V300 0250 R21/0325N FZFG VV000
M04/M04 Q1036=
ZCZC
SA220425 EHFZ     F16-A   NLD   43 m.
METAR EHFZ 220425Z AUTO 29016KT 9999 FEW003 BKN004 OVC005 08/07
Q1034=
ZCZC
SA220425 EHKV     K14-FA-1C   NLD   41 m.
METAR EHKV 220425Z AUTO 29013KT 230V010 7000 FEW007 SCT011 BKN013
07/06 Q1036=
ZCZC
SA220425 EHMG     L9-FF-1   NLD   44 m.
METAR EHMG 220425Z AUTO VRB16KT 4300 BR BKN001 OVC003 07/07 Q1035=
ZCZC
SA220425 EHMA     AWG-1   NLD   40 m.
METAR EHMA 220425Z AUTO 29016KT 1900 -DZ BKN001 OVC002 07/07 Q1034=
ZCZC
SA220425 EHDV     D15-FA-1   NLD   42 m.
METAR EHDV 220425Z AUTO 34008KT 9999 BKN003/// OVC004/// 08/07 Q1035=
ZCZC
SA220425 EHAK     A12-CPP   NLD   48 m.
METAR EHAK 220425Z AUTO 34014KT 1000 BR BKN000/// BKN002/// OVC003///
07/07 Q1034=
ZCZC
SA220425 EHQE     HOORN-A   NLD   50 m.
METAR EHQE 220425Z AUTO 26014KT 9999 FEW003 BKN006 BKN007 07/06
Q1035=
ZCZC
SA220425 EHJA     J6-A   NLD   45 m.
METAR EHJA 220425Z AUTO 28014KT 3400 BR FEW000/// SCT006/// BKN007///
08/07 Q1036=
ZCZC
SA220425 EHPG     P11-B   NLD   41 m.
METAR EHPG 220425Z AUTO ///06KT 9999 SCT010 BKN012 OVC015 07/04
Q1036=
ZCZC
SA220425 EHHW     BUITENGAATS/BG-OHVS2      42 m.
METAR EHHW 220425Z AUTO 33010KT 290V010 7000 SCT002/// BKN003///
BKN004/// 08/07 Q1033=